Time;durP1;ratioP1;P1;durP2;ratioP2;P2;SDS_P1;SDS_P2;PMS_P1;PMS_P2;Temp;Humidity;BMP_temperature;BMP_pressure;BME280_temperature;BME280_humidity;BME280_pressure;Samples;Min_cycle;Max_cycle;Signal;HPM_P1;HPM_P2
2021/08/26 00:06:47;;;;;;;;;;;15.60;90.30;;;;;;4875583;29;20032;-67
2021/08/26 00:09:15;;;;;;;4.40;1.83;;;15.60;90.20;;;;;;4871972;29;19919;-67
2021/08/26 00:12:00;;;;;;;3.28;1.63;;;15.60;90.20;;;;;;4872103;29;20021;-66
2021/08/26 00:14:26;;;;;;;4.13;1.60;;;15.70;90.20;;;;;;4875109;29;20354;-66
2021/08/26 00:16:53;;;;;;;6.10;1.88;;;15.60;90.20;;;;;;4872423;29;20028;-69
2021/08/26 00:19:20;;;;;;;3.42;2.30;;;15.70;90.50;;;;;;4873467;29;20394;-70
2021/08/26 00:21:46;;;;;;;3.25;1.50;;;15.60;90.10;;;;;;4872908;29;20033;-67
2021/08/26 00:24:14;;;;;;;6.95;1.50;;;15.60;90.20;;;;;;4873292;29;20062;-68
2021/08/26 00:26:40;;;;;;;5.30;1.52;;;15.60;90.10;;;;;;4871834;29;20532;-66
2021/08/26 00:29:07;;;;;;;3.70;1.42;;;15.60;89.90;;;;;;4874291;29;20048;-72
2021/08/26 00:31:33;;;;;;;3.35;1.73;;;15.60;89.80;;;;;;4874316;29;20025;-68
2021/08/26 00:34:00;;;;;;;4.55;1.02;;;15.60;89.70;;;;;;4872828;29;20037;-68
2021/08/26 00:36:26;;;;;;;4.47;1.45;;;15.60;89.60;;;;;;4873615;29;20027;-69
2021/08/26 00:38:52;;;;;;;2.28;1.30;;;15.60;89.60;;;;;;4871842;29;20084;-68
2021/08/26 00:41:22;;;;;;;2.88;1.30;;;15.60;89.70;;;;;;4873717;29;20036;-69
2021/08/26 00:43:49;;;;;;;3.25;1.60;;;15.60;89.10;;;;;;4870557;29;20029;-71
2021/08/26 00:46:16;;;;;;;2.50;1.50;;;15.60;88.70;;;;;;4870459;29;20062;-68
2021/08/26 00:48:47;;;;;;;25.98;17.55;;;15.60;88.10;;;;;;4855986;29;20017;-69
2021/08/26 00:51:14;;;;;;;35.85;27.58;;;15.50;88.20;;;;;;4872253;29;20061;-69
2021/08/26 00:53:41;;;;;;;8.15;6.82;;;15.60;88.20;;;;;;4872210;29;20515;-68
2021/08/26 00:56:18;;;;;;;5.47;2.40;;;15.60;87.70;;;;;;4869922;29;20073;-67
2021/08/26 00:58:47;;;;;;;2.78;1.70;;;15.60;87.50;;;;;;4872330;29;20033;-69
2021/08/26 01:01:17;;;;;;;3.78;1.73;;;15.60;87.40;;;;;;4870344;29;20025;-71
2021/08/26 01:03:55;;;;;;;4.15;2.70;;;15.50;87.20;;;;;;4872466;29;20048;-67
2021/08/26 01:06:29;;;;;;;3.92;1.65;;;15.50;87.40;;;;;;4870310;29;20489;-69
2021/08/26 01:09:00;;;;;;;3.22;1.73;;;15.50;87.30;;;;;;4870491;29;20353;-69
2021/08/26 01:11:27;;;;;;;3.17;1.67;;;15.40;87.10;;;;;;4872705;29;20025;-69
2021/08/26 01:13:56;;;;;;;7.70;1.70;;;15.40;86.90;;;;;;4850933;29;20408;-66
2021/08/26 01:16:22;;;;;;;3.08;1.77;;;15.30;86.70;;;;;;4869343;29;20040;-67
2021/08/26 01:18:49;;;;;;;2.65;1.98;;;15.30;86.80;;;;;;4871548;29;20021;-69
2021/08/26 01:21:18;;;;;;;4.20;1.63;;;15.30;86.70;;;;;;4871194;29;20029;-68
2021/08/26 01:23:51;;;;;;;3.45;1.17;;;15.30;86.90;;;;;;4870767;29;20485;-67
2021/08/26 01:26:27;;;;;;;3.05;1.52;;;15.30;86.90;;;;;;4872007;29;20178;-68
2021/08/26 01:28:59;;;;;;;4.20;1.40;;;15.30;86.70;;;;;;4872879;29;20052;-68
2021/08/26 01:31:25;;;;;;;6.88;1.60;;;15.30;86.50;;;;;;4872099;29;20029;-70
2021/08/26 01:33:54;;;;;;;16.55;3.67;;;15.30;86.30;;;;;;4872790;29;20090;-67
2021/08/26 01:36:24;;;;;;;8.40;2.10;;;15.30;86.40;;;;;;4869116;29;20033;-66
2021/08/26 01:38:51;;;;;;;1.75;1.20;;;15.20;86.90;;;;;;4872295;29;20473;-67
2021/08/26 01:41:19;;;;;;;5.43;2.47;;;15.20;87.10;;;;;;4869323;29;20445;-69
2021/08/26 01:43:50;;;;;;;2.72;2.15;;;15.20;87.50;;;;;;4871161;29;20439;-67
2021/08/26 01:46:17;;;;;;;2.67;1.60;;;15.20;87.20;;;;;;4873270;29;20047;-69
2021/08/26 01:48:47;;;;;;;42.70;35.38;;;15.20;87.50;;;;;;4870639;29;20062;-68
2021/08/26 01:51:14;;;;;;;116.68;85.72;;;15.20;87.50;;;;;;4872838;29;20088;-66
2021/08/26 01:53:40;;;;;;;19.58;12.27;;;15.20;87.80;;;;;;4873232;29;20037;-69
2021/08/26 01:56:08;;;;;;;6.80;3.08;;;15.20;87.90;;;;;;4872412;29;20128;-68
2021/08/26 01:58:34;;;;;;;2.53;1.20;;;15.20;87.60;;;;;;4873452;29;20044;-73
2021/08/26 02:01:01;;;;;;;3.85;1.30;;;15.30;87.50;;;;;;4870302;29;20021;-69
2021/08/26 02:03:27;;;;;;;3.67;1.45;;;15.20;87.40;;;;;;4871317;29;20101;-70
2021/08/26 02:05:55;;;;;;;3.58;1.50;;;15.20;87.70;;;;;;4868164;29;20037;-68
2021/08/26 02:08:25;;;;;;;3.15;1.20;;;15.20;87.90;;;;;;4871748;29;20017;-74
2021/08/26 02:10:56;;;;;;;2.95;2.08;;;15.30;88.00;;;;;;4852835;29;20025;-74
2021/08/26 02:13:28;;;;;;;2.72;1.23;;;15.30;87.90;;;;;;4869482;29;20029;-74
2021/08/26 02:15:57;;;;;;;1.77;1.20;;;15.20;87.90;;;;;;4869416;29;20044;-70
2021/08/26 02:18:24;;;;;;;3.35;1.25;;;15.30;88.10;;;;;;4869923;29;20032;-69
2021/08/26 02:20:50;;;;;;;2.75;1.88;;;15.30;87.90;;;;;;4872379;29;20419;-66
2021/08/26 02:23:17;;;;;;;3.45;1.67;;;15.30;88.00;;;;;;4873271;29;20041;-72
2021/08/26 02:25:43;;;;;;;2.85;1.75;;;15.30;88.70;;;;;;4874328;29;20108;-69
2021/08/26 02:28:10;;;;;;;2.03;0.95;;;15.30;88.20;;;;;;4856762;29;20017;-71
2021/08/26 02:30:36;;;;;;;2.70;0.90;;;15.30;88.20;;;;;;4873472;29;20524;-68
2021/08/26 02:33:03;;;;;;;4.20;0.98;;;15.30;88.40;;;;;;4874056;29;20033;-71
2021/08/26 02:35:30;;;;;;;4.18;1.60;;;15.20;88.50;;;;;;4872646;29;20125;-68
2021/08/26 02:37:56;;;;;;;2.67;1.10;;;15.20;88.70;;;;;;4874080;29;20621;-68
2021/08/26 02:40:23;;;;;;;3.08;0.90;;;15.20;88.90;;;;;;4871421;29;20029;-70
2021/08/26 02:42:49;;;;;;;4.72;1.20;;;15.20;89.20;;;;;;4873834;29;20037;-67
2021/08/26 02:45:16;;;;;;;3.88;1.23;;;15.20;89.20;;;;;;4873859;29;20039;-69
2021/08/26 02:47:42;;;;;;;2.10;1.17;;;15.20;89.50;;;;;;4874098;29;20074;-70
2021/08/26 02:50:09;;;;;;;1.55;1.23;;;15.30;89.50;;;;;;4873702;29;20036;-68
2021/08/26 02:52:35;;;;;;;1.88;1.05;;;15.30;89.50;;;;;;4871904;29;20546;-70
2021/08/26 02:55:02;;;;;;;3.35;1.20;;;15.30;89.10;;;;;;4873376;29;20053;-71
2021/08/26 02:57:32;;;;;;;4.85;1.10;;;15.30;88.80;;;;;;4872753;29;20032;-73
2021/08/26 03:00:02;;;;;;;2.67;1.05;;;15.30;88.60;;;;;;4873947;29;20081;-73
2021/08/26 03:02:29;;;;;;;1.90;1.73;;;15.30;88.60;;;;;;4870961;29;20025;-68
2021/08/26 03:04:55;;;;;;;1.10;0.77;;;15.30;88.30;;;;;;4873086;29;20029;-73
2021/08/26 03:07:22;;;;;;;3.63;0.98;;;15.30;88.20;;;;;;4874233;29;20049;-69
2021/08/26 03:09:48;;;;;;;1.90;0.82;;;15.30;88.30;;;;;;4871292;29;20480;-69
2021/08/26 03:12:15;;;;;;;3.03;1.30;;;15.30;88.60;;;;;;4873289;29;20639;-68
2021/08/26 03:14:41;;;;;;;1.90;0.80;;;15.30;88.60;;;;;;4872020;29;20029;-68
2021/08/26 03:17:08;;;;;;;4.18;1.00;;;15.30;88.90;;;;;;4874053;29;20085;-73
2021/08/26 03:19:35;;;;;;;3.25;1.73;;;15.30;88.80;;;;;;4873497;29;20031;-68
2021/08/26 03:22:01;;;;;;;2.70;1.13;;;15.20;88.90;;;;;;4873122;29;20029;-74
2021/08/26 03:24:28;;;;;;;3.05;1.17;;;15.20;89.10;;;;;;4871758;29;20079;-69
2021/08/26 03:26:54;;;;;;;2.28;1.58;;;15.30;89.50;;;;;;4872547;29;20025;-69
2021/08/26 03:29:21;;;;;;;1.00;0.80;;;15.20;89.70;;;;;;4873572;29;20025;-71
2021/08/26 03:31:47;;;;;;;3.28;1.08;;;15.20;89.70;;;;;;4871603;29;20549;-70
2021/08/26 03:34:14;;;;;;;8.23;0.88;;;15.20;89.90;;;;;;4855439;29;20040;-69
2021/08/26 03:36:40;;;;;;;4.35;1.70;;;15.20;90.20;;;;;;4870282;29;20047;-70
2021/08/26 03:39:07;;;;;;;1.85;0.80;;;15.20;90.30;;;;;;4873108;29;20184;-71
2021/08/26 03:41:33;;;;;;;4.10;1.20;;;15.20;90.20;;;;;;4872874;29;20426;-66
2021/08/26 03:44:00;;;;;;;3.15;1.05;;;15.20;90.20;;;;;;4871842;29;20029;-70
2021/08/26 03:46:26;;;;;;;2.70;0.77;;;15.20;90.10;;;;;;4873334;29;20025;-72
2021/08/26 03:48:53;;;;;;;0.93;0.70;;;15.20;90.00;;;;;;4871281;29;20037;-68
2021/08/26 03:51:19;;;;;;;3.70;1.10;;;15.20;90.00;;;;;;4873109;29;20029;-66
2021/08/26 03:53:46;;;;;;;2.33;1.65;;;15.20;90.00;;;;;;4864479;29;20045;-69
2021/08/26 03:56:12;;;;;;;2.55;0.75;;;15.20;89.60;;;;;;4871377;29;20051;-68
2021/08/26 03:58:39;;;;;;;1.90;1.00;;;15.20;89.60;;;;;;4859253;29;20056;-65
2021/08/26 04:01:07;;;;;;;5.45;1.52;;;15.20;89.20;;;;;;4872748;29;20049;-72
2021/08/26 04:03:34;;;;;;;5.35;0.98;;;15.20;88.60;;;;;;4872909;29;20017;-69
2021/08/26 04:06:00;;;;;;;3.42;0.85;;;15.20;88.50;;;;;;4869922;29;20036;-68
2021/08/26 04:08:29;;;;;;;17.77;12.82;;;15.20;88.90;;;;;;4872522;29;20029;-74
2021/08/26 04:10:55;;;;;;;314.05;254.82;;;15.20;88.40;;;;;;4870616;29;20017;-70
2021/08/26 04:13:22;;;;;;;47.70;36.63;;;15.20;88.40;;;;;;4870379;29;20041;-70
2021/08/26 04:15:49;;;;;;;6.25;4.13;;;15.30;88.30;;;;;;4870405;29;20021;-69
2021/08/26 04:18:17;;;;;;;3.17;1.83;;;15.30;88.10;;;;;;4872335;29;20092;-68
2021/08/26 04:20:44;;;;;;;6.97;2.03;;;15.30;88.10;;;;;;4869544;29;20045;-68
2021/08/26 04:23:11;;;;;;;3.58;1.35;;;15.30;88.10;;;;;;4872319;29;20103;-70
2021/08/26 04:25:38;;;;;;;5.25;1.80;;;15.30;88.00;;;;;;4854146;29;20814;-69
2021/08/26 04:28:06;;;;;;;4.68;1.85;;;15.30;88.30;;;;;;4871953;29;20040;-67
2021/08/26 04:30:36;;;;;;;3.90;1.80;;;15.30;88.10;;;;;;4870850;29;20037;-67
2021/08/26 04:33:13;;;;;;;17.38;13.38;;;15.30;88.10;;;;;;4870734;29;20041;-67
2021/08/26 04:35:48;;;;;;;7.13;5.82;;;15.30;87.90;;;;;;4870646;29;20026;-70
2021/08/26 04:38:15;;;;;;;6.18;1.90;;;15.30;87.70;;;;;;4872416;29;20033;-67
2021/08/26 04:40:44;;;;;;;2.38;1.20;;;15.30;87.50;;;;;;4870099;29;20025;-68
2021/08/26 04:43:12;;;;;;;2.25;1.10;;;15.30;87.30;;;;;;4867840;29;20041;-65
2021/08/26 04:45:38;;;;;;;6.18;2.05;;;15.40;87.00;;;;;;4870371;29;20128;-69
2021/08/26 04:48:07;;;;;;;6.50;1.30;;;15.40;86.70;;;;;;4871525;29;20036;-63
2021/08/26 04:50:34;;;;;;;4.57;1.70;;;15.40;86.60;;;;;;4858180;29;20040;-72
2021/08/26 04:53:00;;;;;;;6.90;1.42;;;15.40;86.50;;;;;;4870114;29;20073;-69
2021/08/26 04:55:31;;;;;;;1.98;0.73;;;15.30;86.30;;;;;;4870934;29;20053;-68
2021/08/26 04:57:58;;;;;;;2.47;0.80;;;15.30;86.50;;;;;;4870256;29;20783;-66
2021/08/26 05:00:25;;;;;;;7.05;0.80;;;15.40;86.70;;;;;;4870253;29;20408;-67
2021/08/26 05:02:53;;;;;;;5.97;1.40;;;15.40;86.60;;;;;;4868781;29;20055;-66
2021/08/26 05:05:24;;;;;;;6.18;1.13;;;15.40;86.70;;;;;;4856111;29;20395;-71
2021/08/26 05:07:53;;;;;;;5.15;1.02;;;15.30;87.00;;;;;;4871448;29;20481;-70
2021/08/26 05:10:21;;;;;;;4.45;1.00;;;15.30;87.30;;;;;;4870437;29;20025;-67
2021/08/26 05:12:48;;;;;;;6.53;1.10;;;15.30;87.30;;;;;;4871964;29;20084;-69
2021/08/26 05:15:20;;;;;;;3.30;1.58;;;15.30;87.30;;;;;;4871383;29;20529;-66
2021/08/26 05:17:47;;;;;;;4.53;1.23;;;15.30;87.40;;;;;;4871962;29;20084;-67
2021/08/26 05:20:14;;;;;;;2.40;1.58;;;15.30;87.50;;;;;;4870605;29;20410;-71
2021/08/26 05:22:40;;;;;;;4.88;1.23;;;15.30;87.60;;;;;;4872219;29;20076;-65
2021/08/26 05:25:10;;;;;;;5.28;1.25;;;15.30;87.40;;;;;;4872348;29;20029;-65
2021/08/26 05:27:37;;;;;;;2.25;1.20;;;15.30;87.40;;;;;;4853758;29;20040;-66
2021/08/26 05:30:03;;;;;;;3.55;1.58;;;15.30;87.10;;;;;;4872483;29;20032;-66
2021/08/26 05:32:30;;;;;;;3.78;1.55;;;15.30;86.90;;;;;;4871942;29;20401;-66
2021/08/26 05:34:56;;;;;;;5.45;2.08;;;15.30;87.00;;;;;;4871702;29;20482;-67
2021/08/26 05:37:23;;;;;;;4.53;1.25;;;15.20;87.10;;;;;;4871059;29;20017;-66
2021/08/26 05:39:49;;;;;;;4.95;1.10;;;15.30;87.30;;;;;;4871725;29;20081;-67
2021/08/26 05:42:16;;;;;;;3.72;1.30;;;15.20;87.00;;;;;;4871105;29;20042;-67
2021/08/26 05:44:42;;;;;;;3.42;1.17;;;15.30;87.30;;;;;;4871807;29;20157;-67
2021/08/26 05:47:09;;;;;;;6.25;1.25;;;15.20;87.20;;;;;;4872103;29;20437;-66
2021/08/26 05:49:35;;;;;;;1.52;0.95;;;15.30;88.00;;;;;;4871523;29;20101;-68
2021/08/26 05:52:02;;;;;;;6.03;2.65;;;15.20;87.30;;;;;;4870381;29;20048;-68
2021/08/26 05:54:28;;;;;;;2.35;1.30;;;15.20;87.50;;;;;;4872561;29;20117;-66
2021/08/26 05:56:58;;;;;;;6.18;1.08;;;15.20;87.50;;;;;;4874825;29;20052;-69
2021/08/26 05:59:26;;;;;;;3.58;1.08;;;15.20;87.60;;;;;;4876743;29;20032;-67
2021/08/26 06:01:52;;;;;;;4.47;2.05;;;15.20;87.70;;;;;;4878911;29;20017;-66
2021/08/26 06:04:19;;;;;;;3.60;1.73;;;15.20;87.90;;;;;;4876651;29;20546;-68
2021/08/26 06:06:45;;;;;;;3.83;1.08;;;15.20;88.00;;;;;;4878188;29;20032;-67
2021/08/26 06:09:12;;;;;;;2.33;1.02;;;15.30;88.20;;;;;;4874869;29;20392;-68
2021/08/26 06:11:39;;;;;;;3.92;1.20;;;15.30;88.30;;;;;;4874532;29;20697;-71
2021/08/26 06:14:05;;;;;;;8.00;1.38;;;15.20;88.30;;;;;;4876540;29;20149;-69
2021/08/26 06:16:31;;;;;;;7.07;1.48;;;15.30;88.40;;;;;;4874559;29;20032;-69
2021/08/26 06:18:58;;;;;;;5.25;1.10;;;15.30;88.50;;;;;;4876501;29;20052;-70
2021/08/26 06:21:24;;;;;;;3.72;1.00;;;15.30;88.50;;;;;;4875728;29;20029;-68
2021/08/26 06:23:51;;;;;;;11.05;1.70;;;15.40;88.10;;;;;;4874821;29;20029;-69
2021/08/26 06:26:17;;;;;;;2.42;1.13;;;15.40;87.80;;;;;;4877675;29;20111;-68
2021/08/26 06:28:44;;;;;;;2.40;0.82;;;15.50;87.60;;;;;;4876515;29;20037;-65
2021/08/26 06:31:10;;;;;;;5.65;1.52;;;15.50;87.50;;;;;;4877203;29;20056;-67
2021/08/26 06:33:37;;;;;;;6.78;1.80;;;15.60;87.10;;;;;;4872871;29;20045;-65
2021/08/26 06:36:05;;;;;;;9.75;1.17;;;15.50;86.90;;;;;;4877673;29;20072;-66
2021/08/26 06:38:31;;;;;;;3.53;1.30;;;15.60;86.60;;;;;;4876262;29;20539;-67
2021/08/26 06:40:58;;;;;;;5.45;1.10;;;15.60;86.40;;;;;;4875973;29;20085;-67
2021/08/26 06:43:24;;;;;;;4.30;1.30;;;15.60;86.50;;;;;;4875154;29;20533;-66
2021/08/26 06:45:50;;;;;;;3.05;1.20;;;15.70;86.80;;;;;;4870599;29;20484;-68
2021/08/26 06:48:17;;;;;;;2.65;1.00;;;15.80;87.00;;;;;;4876599;29;20495;-69
2021/08/26 06:50:44;;;;;;;2.42;1.05;;;15.80;87.10;;;;;;4874223;29;20032;-65
2021/08/26 06:53:10;;;;;;;3.42;1.05;;;15.80;87.00;;;;;;4876209;29;20036;-67
2021/08/26 06:55:37;;;;;;;7.97;1.30;;;15.80;86.80;;;;;;4849815;29;20125;-67
2021/08/26 06:58:03;;;;;;;2.50;1.10;;;15.90;86.80;;;;;;4854212;29;20026;-67
2021/08/26 07:00:30;;;;;;;5.78;1.25;;;15.90;86.70;;;;;;4857544;29;20386;-66
2021/08/26 07:02:57;;;;;;;6.65;1.25;;;15.90;86.40;;;;;;4855701;29;20033;-68
2021/08/26 07:05:24;;;;;;;4.20;1.40;;;15.90;86.10;;;;;;4856336;29;20033;-66
2021/08/26 07:07:50;;;;;;;3.28;1.10;;;15.90;86.20;;;;;;4851335;29;20400;-65
2021/08/26 07:10:17;;;;;;;5.18;1.30;;;15.80;86.30;;;;;;4856988;29;20025;-69
2021/08/26 07:12:44;;;;;;;4.95;1.55;;;15.80;86.50;;;;;;4853850;29;20053;-66
2021/08/26 07:15:10;;;;;;;4.40;1.35;;;15.90;86.50;;;;;;4855119;29;20030;-65
2021/08/26 07:17:37;;;;;;;5.05;1.08;;;15.90;86.40;;;;;;4852725;29;20034;-65
2021/08/26 07:20:05;;;;;;;4.20;0.98;;;15.90;86.20;;;;;;4856921;29;20025;-72
2021/08/26 07:22:32;;;;;;;2.38;1.17;;;16.00;85.70;;;;;;4854541;29;20584;-66
2021/08/26 07:24:58;;;;;;;4.85;1.13;;;15.90;85.20;;;;;;4853449;29;20389;-66
2021/08/26 07:27:25;;;;;;;2.30;1.35;;;16.00;84.70;;;;;;4853663;29;20081;-66
2021/08/26 07:29:51;;;;;;;5.70;1.00;;;16.00;84.50;;;;;;4851924;29;20021;-65
2021/08/26 07:32:18;;;;;;;6.03;1.30;;;16.10;84.60;;;;;;4838716;29;20061;-68
2021/08/26 07:34:44;;;;;;;6.90;1.20;;;16.20;84.40;;;;;;4854106;29;20037;-70
2021/08/26 07:37:10;;;;;;;3.97;1.10;;;16.20;83.80;;;;;;4856787;29;20032;-66
2021/08/26 07:39:37;;;;;;;8.60;1.48;;;16.30;83.30;;;;;;4837584;29;20068;-67
2021/08/26 07:42:03;;;;;;;6.18;1.30;;;16.30;83.50;;;;;;4854011;29;20025;-69
2021/08/26 07:44:30;;;;;;;5.25;1.60;;;16.40;82.60;;;;;;4855001;29;20061;-67
2021/08/26 07:46:56;;;;;;;7.10;1.55;;;16.50;82.50;;;;;;4853634;29;20113;-66
2021/08/26 07:49:23;;;;;;;3.42;1.27;;;16.60;81.20;;;;;;4853715;29;20030;-68
2021/08/26 07:51:49;;;;;;;9.90;1.70;;;16.60;80.90;;;;;;4855052;29;20021;-68
2021/08/26 07:54:16;;;;;;;6.28;1.30;;;16.70;80.90;;;;;;4854272;29;20101;-67
2021/08/26 07:56:43;;;;;;;4.75;1.40;;;16.80;80.60;;;;;;4870493;29;20072;-68
2021/08/26 07:59:09;;;;;;;5.80;1.85;;;16.80;79.90;;;;;;4873395;29;20512;-70
2021/08/26 08:01:36;;;;;;;13.27;1.67;;;16.80;79.70;;;;;;4873659;29;20069;-70
2021/08/26 08:04:02;;;;;;;6.65;1.33;;;16.90;79.30;;;;;;4873390;29;20065;-65
2021/08/26 08:06:29;;;;;;;13.40;2.55;;;16.90;79.20;;;;;;4871578;29;20072;-65
2021/08/26 08:08:55;;;;;;;7.93;1.40;;;16.90;79.10;;;;;;4873746;29;20033;-67
2021/08/26 08:11:22;;;;;;;21.42;2.97;;;16.90;78.80;;;;;;4873100;29;20033;-69
2021/08/26 08:13:49;;;;;;;4.90;2.15;;;16.90;77.80;;;;;;4871720;29;20033;-68
2021/08/26 08:16:15;;;;;;;8.80;1.10;;;16.90;77.80;;;;;;4872589;29;20044;-69
2021/08/26 08:18:41;;;;;;;10.25;1.80;;;17.00;78.10;;;;;;4871030;29;20021;-67
2021/08/26 08:21:08;;;;;;;9.55;2.70;;;17.00;77.50;;;;;;4871664;29;20044;-67
2021/08/26 08:23:34;;;;;;;8.93;1.70;;;17.00;77.30;;;;;;4872510;29;20759;-65
2021/08/26 08:26:01;;;;;;;9.10;2.45;;;17.00;77.60;;;;;;4869874;29;20033;-68
2021/08/26 08:28:28;;;;;;;6.85;1.83;;;16.90;77.80;;;;;;4872491;29;20021;-66
2021/08/26 08:30:55;;;;;;;6.18;1.35;;;16.90;77.60;;;;;;4873237;29;20386;-65
2021/08/26 08:33:21;;;;;;;4.18;1.17;;;16.90;77.60;;;;;;4872364;29;20044;-69
2021/08/26 08:35:48;;;;;;;2.90;0.73;;;16.90;77.70;;;;;;4870482;29;20104;-67
2021/08/26 08:38:14;;;;;;;2.90;1.45;;;16.90;78.20;;;;;;4874635;29;20021;-65
2021/08/26 08:41:20;;;;;;;6.93;1.88;;;16.80;77.50;;;;;;4873591;29;20060;-65
2021/08/26 08:44:26;;;;;;;5.47;1.20;;;16.90;77.70;;;;;;4872441;29;20052;-66
2021/08/26 08:47:32;;;;;;;7.30;2.10;;;16.90;77.60;;;;;;4873154;29;20056;-66
2021/08/26 08:50:42;;;;;;;3.97;1.40;;;16.90;77.30;;;;;;4872922;29;20033;-65
2021/08/26 08:53:51;;;;;;;5.95;1.33;;;16.90;77.60;;;;;;4870678;29;20501;-67
2021/08/26 08:56:57;;;;;;;2.75;1.45;;;16.90;76.60;;;;;;4871495;29;20144;-66
2021/08/26 09:00:03;;;;;;;5.75;1.30;;;16.90;76.10;;;;;;4872666;29;20396;-65
2021/08/26 09:03:09;;;;;;;3.72;1.15;;;16.90;76.30;;;;;;4857704;29;20032;-67
2021/08/26 09:05:51;;;;;;;5.45;1.50;;;16.90;76.70;;;;;;4869589;29;20025;-67
2021/08/26 09:08:57;;;;;;;6.82;1.70;;;16.90;76.90;;;;;;4871609;29;20017;-66
2021/08/26 09:11:52;;;;;;;12.95;1.92;;;16.90;77.20;;;;;;4872174;29;20104;-66
2021/08/26 09:14:58;;;;;;;6.10;1.47;;;16.90;77.40;;;;;;4869551;29;20033;-67
2021/08/26 09:18:04;;;;;;;7.25;1.45;;;17.00;77.50;;;;;;4870162;29;20790;-68
2021/08/26 09:21:10;;;;;;;9.93;2.50;;;17.00;77.20;;;;;;4872993;29;20040;-66
2021/08/26 09:23:52;;;;;;;7.53;1.63;;;17.10;77.20;;;;;;4869380;29;20486;-65
2021/08/26 09:26:58;;;;;;;8.95;2.20;;;17.10;77.10;;;;;;4870695;29;20033;-68
2021/08/26 09:30:02;;;;;;;7.35;1.77;;;17.10;76.70;;;;;;4871834;29;20465;-70
2021/08/26 09:33:17;;;;;;;6.88;1.83;;;17.10;76.50;;;;;;4868798;29;20042;-67
2021/08/26 09:36:24;;;;;;;5.53;1.70;;;17.10;76.30;;;;;;4871120;29;20032;-67
2021/08/26 09:39:33;;;;;;;5.50;1.77;;;17.10;76.70;;;;;;4870254;29;20164;-67
2021/08/26 09:42:39;;;;;;;4.03;1.88;;;17.10;76.40;;;;;;4871839;29;20162;-67
2021/08/26 09:45:54;;;;;;;3.40;1.30;;;17.00;76.40;;;;;;4871142;29;21112;-67
2021/08/26 09:49:00;;;;;;;6.55;1.60;;;17.00;76.70;;;;;;4869742;29;20569;-69
2021/08/26 09:52:06;;;;;;;14.00;2.38;;;17.00;76.30;;;;;;4869421;29;20025;-67
2021/08/26 09:55:12;;;;;;;4.32;1.33;;;17.10;75.70;;;;;;4868762;29;20041;-66
2021/08/26 09:58:27;;;;;;;4.78;1.15;;;17.00;75.20;;;;;;4868805;29;20026;-66
2021/08/26 10:01:29;;;;;;;3.08;1.58;;;17.00;74.50;;;;;;4847503;29;20396;-68
2021/08/26 10:04:47;;;;;;;5.50;1.40;;;17.10;74.20;;;;;;4871631;29;20507;-67
2021/08/26 10:07:53;;;;;;;7.82;1.63;;;17.00;73.90;;;;;;4872203;29;20021;-66
2021/08/26 10:11:00;;;;;;;7.45;1.90;;;17.00;73.50;;;;;;4870669;29;20037;-66
2021/08/26 10:14:08;;;;;;;5.22;2.00;;;17.00;73.90;;;;;;4870122;29;20040;-68
2021/08/26 10:17:15;;;;;;;5.32;1.00;;;17.00;74.00;;;;;;4871091;29;20041;-70
2021/08/26 10:20:21;;;;;;;3.10;1.77;;;17.00;74.40;;;;;;4871150;29;20037;-68
2021/08/26 10:23:27;;;;;;;4.80;1.58;;;17.00;74.60;;;;;;4864736;29;20061;-68
2021/08/26 10:26:33;;;;;;;5.32;1.38;;;17.00;74.50;;;;;;4870820;29;20033;-68
2021/08/26 10:29:39;;;;;;;7.88;1.48;;;17.00;74.70;;;;;;4872547;29;20485;-67
2021/08/26 10:32:45;;;;;;;11.75;2.40;;;17.00;75.00;;;;;;4869247;29;20294;-68
2021/08/26 10:35:55;;;;;;;6.45;2.08;;;17.00;75.20;;;;;;4870539;29;20116;-67
2021/08/26 10:39:01;;;;;;;10.55;2.15;;;17.00;75.20;;;;;;4869390;29;20025;-67
2021/08/26 10:41:28;;;;;;;7.60;1.38;;;17.00;75.30;;;;;;4870517;29;20445;-70
2021/08/26 10:44:00;;;;;;;4.40;1.50;;;17.00;75.50;;;;;;4875045;29;20060;-66
2021/08/26 10:46:49;;;;;;;4.18;2.00;;;17.00;75.90;;;;;;4866775;29;20120;-70
2021/08/26 10:49:17;;;;;;;8.93;1.70;;;17.00;75.70;;;;;;4873751;29;20044;-65
2021/08/26 10:51:46;;;;;;;10.57;1.23;;;17.00;75.80;;;;;;4875235;29;20479;-70
2021/08/26 10:54:32;;;;;;;10.02;2.60;;;17.00;76.50;;;;;;4872887;29;20033;-71
2021/08/26 10:57:24;;;;;;;8.40;2.85;;;17.00;77.80;;;;;;4873151;29;20072;-68
2021/08/26 10:59:51;;;;;;;15.45;3.33;;;16.90;77.40;;;;;;4875747;29;20512;-71
2021/08/26 11:02:40;;;;;;;26.58;5.00;;;16.90;77.10;;;;;;4873877;29;20024;-73
2021/08/26 11:05:47;;;;;;;12.25;3.20;;;16.90;77.10;;;;;;4873421;29;20033;-68
2021/08/26 11:08:36;;;;;;;12.20;1.75;;;16.90;77.30;;;;;;4820316;29;20178;-69
2021/08/26 11:11:29;;;;;;;10.90;2.30;;;16.80;76.90;;;;;;4817952;29;20513;-68
2021/08/26 11:14:05;;;;;;;10.85;2.17;;;16.80;76.60;;;;;;4864568;29;20053;-68
2021/08/26 11:16:35;;;;;;;;;;;16.90;76.80;;;;;;4870867;29;20169;-66
2021/08/26 11:19:04;;;;;;;6.47;1.40;;;16.90;76.80;;;;;;4873186;29;19911;-68
2021/08/26 11:24:26;;;;;;;13.13;1.70;;;16.90;77.10;;;;;;4874689;29;20033;-66
2021/08/26 11:27:04;;;;;;;9.43;2.10;;;16.90;76.90;;;;;;4873484;29;20028;-70
2021/08/26 11:29:37;;;;;;;5.88;1.80;;;16.90;76.70;;;;;;4873537;29;20049;-69
2021/08/26 11:32:07;;;;;;;7.25;1.48;;;16.90;76.90;;;;;;4873001;29;20032;-66
2021/08/26 11:34:54;;;;;;;6.90;1.75;;;16.90;76.80;;;;;;4873698;29;20132;-68
2021/08/26 11:37:25;;;;;;;11.02;2.47;;;16.90;76.40;;;;;;4872242;29;20092;-65
2021/08/26 11:39:55;;;;;;;6.05;1.80;;;16.90;76.50;;;;;;4872628;29;20331;-67
2021/08/26 11:42:24;;;;;;;18.02;3.28;;;16.90;76.80;;;;;;4872428;29;20052;-69
2021/08/26 11:45:14;;;;;;;9.20;2.13;;;16.80;77.20;;;;;;4873633;29;20032;-65
2021/08/26 11:47:43;;;;;;;7.32;1.70;;;16.80;77.70;;;;;;4873951;29;20382;-66
2021/08/26 11:50:21;;;;;;;9.68;2.78;;;16.80;78.40;;;;;;4872396;29;20033;-63
2021/08/26 11:53:00;;;;;;;13.27;2.15;;;16.80;78.80;;;;;;4869629;29;20037;-65
2021/08/26 11:55:29;;;;;;;4.47;1.77;;;16.80;79.20;;;;;;4875079;29;20048;-66
2021/08/26 11:58:06;;;;;;;8.77;2.25;;;16.70;79.50;;;;;;4874623;29;20508;-64
2021/08/26 12:00:34;;;;;;;8.80;2.80;;;16.70;80.30;;;;;;4875697;29;20088;-68
2021/08/26 12:03:02;;;;;;;8.10;2.67;;;16.70;80.80;;;;;;4872071;29;20116;-65
2021/08/26 12:05:29;;;;;;;9.65;2.42;;;16.70;80.80;;;;;;4872064;29;20377;-64
2021/08/26 12:07:56;;;;;;;6.75;2.28;;;16.70;81.00;;;;;;4869468;29;20036;-67
2021/08/26 12:10:35;;;;;;;9.88;2.67;;;16.70;81.80;;;;;;4874826;29;20480;-64
2021/08/26 12:13:07;;;;;;;8.80;2.15;;;16.70;83.00;;;;;;4872002;29;20044;-65
2021/08/26 12:15:51;;;;;;;11.18;2.83;;;16.70;83.30;;;;;;4873995;29;20025;-64
2021/08/26 12:18:23;;;;;;;8.18;2.35;;;16.60;83.90;;;;;;4875550;29;20116;-65
2021/08/26 12:21:03;;;;;;;10.77;2.45;;;16.50;84.90;;;;;;4858181;29;20072;-63
2021/08/26 12:23:31;;;;;;;6.85;2.20;;;16.50;85.90;;;;;;4872910;29;20060;-68
2021/08/26 12:26:11;;;;;;;6.68;2.40;;;16.40;86.80;;;;;;4872147;29;20026;-63
2021/08/26 12:29:17;;;;;;;10.95;3.55;;;16.40;87.10;;;;;;4873932;29;20033;-63
2021/08/26 12:32:23;;;;;;;9.88;2.28;;;16.30;87.40;;;;;;4868476;29;20025;-63
2021/08/26 12:35:38;;;;;;;5.47;2.25;;;16.30;87.90;;;;;;4870033;29;20068;-63
2021/08/26 12:39:00;;;;;;;9.48;2.80;;;16.20;88.20;;;;;;4874938;29;20071;-64
2021/08/26 12:42:06;;;;;;;7.15;2.50;;;16.20;89.10;;;;;;4872163;29;20145;-63
2021/08/26 12:45:12;;;;;;;6.40;1.55;;;16.20;89.60;;;;;;4869055;29;20032;-63
2021/08/26 12:48:18;;;;;;;5.68;2.25;;;16.20;89.20;;;;;;4872339;29;20034;-65
2021/08/26 12:51:24;;;;;;;6.05;2.30;;;16.20;89.30;;;;;;4857560;29;20506;-63
2021/08/26 12:53:57;;;;;;;9.95;2.80;;;16.10;89.70;;;;;;4868424;29;20094;-63
2021/08/26 12:57:03;;;;;;;7.00;2.55;;;16.10;90.20;;;;;;4872614;29;20037;-63
2021/08/26 13:00:15;;;;;;;13.32;3.80;;;16.00;90.20;;;;;;4866582;29;20397;-62
2021/08/26 13:03:30;;;;;;;7.32;2.40;;;16.00;90.50;;;;;;4871769;29;20169;-65
2021/08/26 13:06:51;;;;;;;4.93;2.20;;;15.90;90.70;;;;;;4873084;29;20040;-62
2021/08/26 13:09:56;;;;;;;7.18;1.90;;;15.90;91.00;;;;;;4873860;29;20932;-63
2021/08/26 13:13:02;;;;;;;9.75;2.33;;;15.80;91.20;;;;;;4868203;29;20501;-63
2021/08/26 13:16:08;;;;;;;4.72;2.03;;;15.80;91.50;;;;;;4871959;29;20059;-63
2021/08/26 13:19:14;;;;;;;5.18;1.92;;;15.80;91.60;;;;;;4872153;29;20070;-63
2021/08/26 13:22:20;;;;;;;11.27;2.33;;;15.80;91.50;;;;;;4872517;29;20404;-62
2021/08/26 13:25:26;;;;;;;5.05;2.35;;;15.80;91.60;;;;;;4874405;29;20021;-67
2021/08/26 13:28:32;;;;;;;6.78;2.15;;;15.80;91.80;;;;;;4873405;29;20507;-62
2021/08/26 13:31:38;;;;;;;10.40;4.03;;;15.80;91.90;;;;;;4872803;29;20049;-62
2021/08/26 13:34:44;;;;;;;6.47;2.03;;;15.70;91.80;;;;;;4874701;29;20116;-62
2021/08/26 13:37:50;;;;;;;8.55;3.03;;;15.70;92.00;;;;;;4871595;29;20025;-62
2021/08/26 13:40:56;;;;;;;7.10;2.08;;;15.70;92.00;;;;;;4870122;29;20025;-64